createdAt,value
2022-09-30T00:01:17.610Z,23.23
2022-09-30T00:03:49.586Z,24.10
2022-09-30T00:06:20.714Z,24.00
2022-09-30T00:08:47.556Z,23.07
2022-09-30T00:11:19.022Z,23.40
2022-09-30T00:13:50.538Z,22.53
2022-09-30T00:16:18.063Z,21.27
2022-09-30T00:18:45.006Z,24.50
2022-09-30T00:21:12.061Z,22.13
2022-09-30T00:23:43.356Z,22.10
2022-09-30T00:26:20.591Z,21.47
2022-09-30T00:28:52.438Z,24.20
2022-09-30T00:31:19.751Z,24.57
2022-09-30T00:34:06.723Z,22.47
2022-09-30T00:36:34.360Z,21.73
2022-09-30T00:39:01.146Z,24.83
2022-09-30T00:41:30.177Z,22.90
2022-09-30T00:43:56.860Z,19.40
2022-09-30T00:46:26.402Z,20.33
2022-09-30T00:48:54.140Z,22.17
2022-09-30T00:51:31.416Z,23.17
2022-09-30T00:54:01.092Z,22.97
2022-09-30T00:56:37.531Z,21.73
2022-09-30T00:59:12.301Z,22.37
2022-09-30T01:01:39.862Z,23.83
2022-09-30T01:04:16.188Z,24.33
2022-09-30T01:06:46.313Z,24.27
2022-09-30T01:09:17.711Z,23.50
2022-09-30T01:11:47.164Z,21.57
2022-09-30T01:14:19.149Z,22.53
2022-09-30T01:16:45.814Z,25.73
2022-09-30T01:19:24.816Z,24.07
2022-09-30T01:21:57.729Z,23.43
2022-09-30T01:24:46.557Z,24.53
2022-09-30T01:27:35.108Z,22.07
2022-09-30T01:30:12.672Z,30.10
2022-09-30T01:33:04.042Z,23.43
2022-09-30T01:35:57.275Z,25.90
2022-09-30T01:38:29.403Z,29.10
2022-09-30T01:41:28.396Z,26.47
2022-09-30T01:44:26.067Z,30.33
2022-09-30T01:47:00.384Z,32.00
2022-09-30T01:49:38.819Z,28.27
2022-09-30T01:52:13.446Z,29.53
2022-09-30T01:54:43.893Z,28.07
2022-09-30T01:57:19.272Z,29.30
2022-09-30T02:00:22.948Z,26.83
2022-09-30T02:03:09.442Z,28.87
2022-09-30T02:05:55.897Z,30.13
2022-09-30T02:09:15.738Z,26.73
2022-09-30T02:11:44.974Z,28.17
2022-09-30T02:14:26.097Z,30.97
2022-09-30T02:17:02.471Z,29.87
2022-09-30T02:19:43.215Z,30.63
2022-09-30T02:22:17.436Z,33.53
2022-09-30T02:24:46.073Z,39.53
2022-09-30T02:27:42.314Z,36.33
2022-09-30T02:30:09.831Z,35.47
2022-09-30T02:32:57.422Z,36.53
2022-09-30T02:35:34.258Z,34.27
2022-09-30T02:38:05.601Z,28.93
2022-09-30T02:40:52.730Z,36.13
2022-09-30T02:43:20.663Z,34.87
2022-09-30T02:46:06.933Z,33.80
2022-09-30T02:48:55.997Z,36.57
2022-09-30T02:51:24.455Z,36.10
2022-09-30T02:54:22.613Z,35.50
2022-09-30T02:56:55.079Z,34.10
2022-09-30T02:59:26.981Z,37.00
2022-09-30T03:01:56.377Z,36.67
2022-09-30T03:04:25.077Z,39.83
2022-09-30T03:06:51.763Z,38.27
2022-09-30T03:09:18.639Z,39.90
2022-09-30T03:11:45.431Z,38.40
2022-09-30T03:14:27.832Z,37.07
2022-09-30T03:17:24.612Z,39.70
2022-09-30T03:20:14.729Z,36.83
2022-09-30T03:22:51.312Z,40.30
2022-09-30T03:25:23.792Z,39.33
2022-09-30T03:28:02.479Z,40.53
2022-09-30T03:30:29.275Z,36.03
2022-09-30T03:32:55.945Z,38.13
2022-09-30T03:35:38.912Z,36.27
2022-09-30T03:38:27.056Z,39.57
2022-09-30T03:41:08.499Z,39.83
2022-09-30T03:43:36.625Z,37.83
2022-09-30T03:46:03.343Z,38.13
2022-09-30T03:48:30.147Z,39.63
2022-09-30T03:50:59.096Z,39.07
2022-09-30T03:53:28.359Z,35.50
2022-09-30T03:55:55.625Z,35.23
2022-09-30T03:58:23.500Z,37.77
2022-09-30T04:00:51.459Z,39.83
2022-09-30T04:03:19.747Z,39.73
2022-09-30T04:05:48.884Z,40.77
2022-09-30T04:08:18.015Z,39.43
2022-09-30T04:10:44.901Z,40.17
2022-09-30T04:13:14.065Z,44.70
2022-09-30T04:15:41.669Z,38.60
2022-09-30T04:18:08.381Z,41.77
2022-09-30T04:20:35.173Z,41.13
2022-09-30T04:23:04.051Z,38.23
2022-09-30T04:25:30.813Z,38.53
2022-09-30T04:27:57.735Z,37.13
2022-09-30T04:30:27.167Z,39.43
2022-09-30T04:32:54.049Z,42.63
2022-09-30T04:35:20.802Z,38.93
2022-09-30T04:37:47.669Z,38.93
2022-09-30T04:40:17.788Z,39.30
2022-09-30T04:42:44.603Z,42.83
2022-09-30T04:45:12.177Z,38.57
2022-09-30T04:47:39.417Z,37.47
2022-09-30T04:50:08.773Z,40.10
2022-09-30T04:52:35.529Z,41.50
2022-09-30T04:55:02.221Z,39.97
2022-09-30T04:57:29.001Z,40.37
2022-09-30T04:59:57.920Z,42.07
2022-09-30T05:02:26.860Z,42.77
2022-09-30T05:04:55.803Z,40.87
2022-09-30T05:07:22.616Z,39.87
2022-09-30T05:09:49.316Z,41.87
2022-09-30T05:12:16.183Z,49.17
2022-09-30T05:14:42.894Z,47.90
2022-09-30T05:17:11.871Z,47.90
2022-09-30T05:19:38.581Z,50.70
2022-09-30T05:22:07.531Z,51.33
2022-09-30T05:24:34.210Z,51.83
2022-09-30T05:27:05.815Z,51.20
2022-09-30T05:29:32.690Z,51.10
2022-09-30T05:31:59.729Z,52.17
2022-09-30T05:34:26.587Z,49.70
2022-09-30T05:36:53.485Z,51.87
2022-09-30T05:39:20.242Z,51.63
2022-09-30T05:41:49.115Z,60.33
2022-09-30T05:44:19.359Z,53.77
2022-09-30T05:46:48.271Z,58.40
2022-09-30T05:49:15.047Z,58.27
2022-09-30T05:51:44.394Z,59.20
2022-09-30T05:54:14.135Z,56.60
2022-09-30T05:56:41.011Z,56.13
2022-09-30T05:59:09.872Z,56.27
2022-09-30T06:01:36.974Z,58.63
2022-09-30T06:04:06.342Z,61.37
2022-09-30T06:06:33.035Z,63.03
2022-09-30T06:09:00.352Z,62.97
2022-09-30T06:11:27.155Z,66.30
2022-09-30T06:13:54.287Z,70.97
2022-09-30T06:16:24.077Z,64.37
2022-09-30T06:18:50.939Z,60.60
2022-09-30T06:21:21.009Z,58.77
2022-09-30T06:23:50.305Z,61.07
2022-09-30T06:26:19.631Z,61.03
2022-09-30T06:28:46.435Z,67.90
2022-09-30T06:31:13.275Z,57.03
2022-09-30T06:33:40.090Z,74.70
2022-09-30T06:36:07.241Z,59.27
2022-09-30T06:38:35.929Z,67.67
2022-09-30T06:41:02.684Z,66.00
2022-09-30T06:43:41.483Z,65.00
2022-09-30T06:46:24.420Z,73.10
2022-09-30T06:49:10.289Z,68.63
2022-09-30T06:51:44.556Z,71.93
2022-09-30T06:54:11.298Z,75.40
2022-09-30T06:56:40.544Z,70.37
2022-09-30T06:59:09.458Z,60.57
2022-09-30T07:01:36.224Z,65.70
2022-09-30T07:04:08.155Z,76.67
2022-09-30T07:06:34.911Z,64.73
2022-09-30T07:09:04.512Z,68.53
2022-09-30T07:11:31.264Z,68.00
2022-09-30T07:13:58.006Z,63.77
2022-09-30T07:16:27.308Z,66.63
2022-09-30T07:18:54.394Z,59.50
2022-09-30T07:21:21.366Z,59.37
2022-09-30T07:23:48.348Z,64.17
2022-09-30T07:26:19.709Z,63.47
2022-09-30T07:28:46.532Z,63.03
2022-09-30T07:31:35.424Z,57.83
2022-09-30T07:34:07.783Z,59.40
2022-09-30T07:36:39.531Z,57.20
2022-09-30T07:39:07.659Z,60.70
2022-09-30T07:41:35.749Z,59.77
2022-09-30T07:44:03.032Z,64.40
2022-09-30T07:46:33.419Z,61.23
2022-09-30T07:49:02.222Z,60.07
2022-09-30T07:51:31.375Z,53.30
2022-09-30T07:54:06.093Z,55.00
2022-09-30T07:56:51.139Z,51.90
2022-09-30T07:59:20.121Z,49.37
2022-09-30T08:01:49.321Z,49.90
2022-09-30T08:04:16.368Z,51.67
2022-09-30T08:06:45.638Z,51.47
2022-09-30T08:09:15.673Z,43.10
2022-09-30T08:11:43.060Z,44.10
2022-09-30T08:14:19.536Z,42.70
2022-09-30T08:16:51.664Z,41.27
2022-09-30T08:19:27.699Z,44.03
2022-09-30T08:21:54.718Z,46.80
2022-09-30T08:24:22.145Z,44.97
2022-09-30T08:26:49.148Z,41.60
2022-09-30T08:29:20.561Z,39.77
2022-09-30T08:31:52.401Z,46.27
2022-09-30T08:34:19.348Z,45.03
2022-09-30T08:36:46.738Z,36.73
2022-09-30T08:39:16.240Z,43.83
2022-09-30T08:41:42.868Z,42.33
2022-09-30T08:44:26.771Z,42.20
2022-09-30T08:47:12.381Z,42.13
2022-09-30T08:50:04.231Z,36.83
2022-09-30T08:52:49.120Z,39.27
2022-09-30T08:55:25.251Z,35.63
2022-09-30T08:57:53.016Z,39.90
2022-09-30T09:00:25.011Z,37.63
2022-09-30T09:02:55.912Z,41.23
2022-09-30T09:05:25.805Z,39.20
2022-09-30T09:07:58.075Z,34.63
2022-09-30T09:10:34.365Z,36.60
2022-09-30T09:13:14.209Z,35.67
2022-09-30T09:15:45.948Z,34.23
2022-09-30T09:18:35.752Z,32.43
2022-09-30T09:21:36.667Z,40.07
2022-09-30T09:24:03.527Z,34.40
2022-09-30T09:26:32.906Z,35.93
2022-09-30T09:29:12.830Z,37.27
2022-09-30T09:31:39.583Z,34.03
2022-09-30T09:34:11.386Z,34.17
2022-09-30T09:36:56.579Z,35.80
2022-09-30T09:39:54.114Z,31.73
2022-09-30T09:42:34.860Z,25.40
2022-09-30T09:45:13.540Z,27.93
2022-09-30T09:47:40.659Z,25.27
2022-09-30T09:50:15.018Z,25.83
2022-09-30T09:52:47.648Z,28.33
2022-09-30T09:55:17.702Z,26.33
2022-09-30T09:57:44.641Z,26.27
2022-09-30T10:00:31.387Z,28.43
2022-09-30T10:03:04.135Z,22.30
2022-09-30T10:05:32.527Z,25.67
2022-09-30T10:08:21.025Z,29.03
2022-09-30T10:10:51.915Z,31.43
2022-09-30T10:13:45.568Z,35.67
2022-09-30T10:16:31.219Z,32.57
2022-09-30T10:18:58.815Z,34.97
2022-09-30T10:21:31.695Z,31.93
2022-09-30T10:23:59.880Z,29.47
2022-09-30T10:26:29.943Z,32.40
2022-09-30T10:28:57.529Z,30.73
2022-09-30T10:31:36.681Z,25.00
2022-09-30T10:34:21.500Z,24.50
2022-09-30T10:36:50.720Z,24.77
2022-09-30T10:39:24.043Z,25.37
2022-09-30T10:41:51.889Z,28.37
2022-09-30T10:44:22.615Z,23.13
2022-09-30T10:46:51.268Z,22.20
2022-09-30T10:49:28.378Z,19.80
2022-09-30T10:51:56.700Z,18.23
2022-09-30T10:54:52.287Z,18.27
2022-09-30T10:57:23.682Z,19.33
2022-09-30T10:59:52.483Z,19.67
2022-09-30T11:02:58.870Z,16.40
2022-09-30T11:05:29.527Z,15.93
2022-09-30T11:08:15.629Z,14.80
2022-09-30T11:10:51.456Z,14.87
2022-09-30T11:13:32.119Z,15.47
2022-09-30T11:16:09.732Z,13.57
2022-09-30T11:18:47.568Z,15.47
2022-09-30T11:21:44.969Z,10.77
2022-09-30T11:24:15.389Z,13.93
2022-09-30T11:27:08.758Z,13.50
2022-09-30T11:29:47.644Z,14.77
2022-09-30T11:32:23.284Z,11.40
2022-09-30T11:35:05.062Z,12.87
2022-09-30T11:37:34.828Z,11.37
2022-09-30T11:40:13.648Z,10.43
2022-09-30T11:42:46.460Z,13.70
2022-09-30T11:45:35.824Z,10.13
2022-09-30T11:48:42.434Z,11.77
2022-09-30T11:51:18.501Z,14.13
2022-09-30T11:54:04.455Z,10.63
2022-09-30T11:56:43.096Z,12.33
2022-09-30T11:59:23.441Z,12.67
2022-09-30T12:01:51.166Z,13.33
2022-09-30T12:04:37.329Z,11.60
2022-09-30T12:07:21.779Z,9.87
2022-09-30T12:09:56.514Z,9.87
2022-09-30T12:12:25.788Z,9.77
2022-09-30T12:15:03.431Z,11.60
2022-09-30T12:17:39.954Z,13.67
2022-09-30T12:20:22.072Z,10.07
2022-09-30T12:22:52.162Z,11.97
2022-09-30T12:25:21.271Z,8.63
2022-09-30T12:27:57.612Z,10.33
2022-09-30T12:30:24.466Z,14.17
2022-09-30T12:33:10.887Z,9.77
2022-09-30T12:35:46.438Z,9.53
2022-09-30T12:38:19.023Z,10.37
2022-09-30T12:40:51.568Z,9.30
2022-09-30T12:43:38.809Z,10.43
2022-09-30T12:46:45.797Z,8.33
2022-09-30T12:49:15.025Z,12.97
2022-09-30T12:51:45.148Z,12.27
2022-09-30T12:54:17.965Z,11.30
2022-09-30T12:56:48.363Z,9.40
2022-09-30T12:59:15.098Z,10.40
2022-09-30T13:01:42.216Z,12.40
2022-09-30T13:04:08.865Z,9.47
2022-09-30T13:06:47.805Z,9.30
2022-09-30T13:09:17.343Z,9.30
2022-09-30T13:11:56.819Z,9.43
2022-09-30T13:14:37.889Z,8.27
2022-09-30T13:17:26.059Z,9.20
2022-09-30T13:19:53.971Z,9.67
2022-09-30T13:22:20.615Z,10.23
2022-09-30T13:25:00.619Z,18.87
2022-09-30T13:27:42.600Z,10.57
2022-09-30T13:30:15.615Z,7.47
2022-09-30T13:33:11.380Z,7.57
2022-09-30T13:35:41.783Z,5.43
2022-09-30T13:38:14.209Z,4.87
2022-09-30T13:41:01.852Z,4.67
2022-09-30T13:43:47.263Z,4.40
2022-09-30T13:46:18.145Z,6.03
2022-09-30T13:48:57.019Z,6.23
2022-09-30T13:51:27.700Z,7.97
2022-09-30T13:53:58.509Z,6.60
2022-09-30T13:56:30.574Z,6.17
2022-09-30T13:59:21.645Z,6.40
2022-09-30T14:02:05.691Z,4.33
2022-09-30T14:05:07.597Z,5.97
2022-09-30T14:07:52.517Z,5.47
2022-09-30T14:10:36.968Z,7.07
2022-09-30T14:13:09.700Z,7.20
2022-09-30T14:15:57.301Z,6.30
2022-09-30T14:18:47.485Z,7.90
2022-09-30T14:21:31.813Z,12.53
2022-09-30T14:24:09.846Z,8.33
2022-09-30T14:26:52.947Z,9.83
2022-09-30T14:29:40.522Z,10.23
2022-09-30T14:32:18.885Z,7.87
2022-09-30T14:34:52.153Z,10.10
2022-09-30T14:37:28.044Z,11.23
2022-09-30T14:39:54.874Z,15.73
2022-09-30T14:42:30.493Z,10.63
2022-09-30T14:45:04.798Z,9.73
2022-09-30T14:47:39.009Z,13.63
2022-09-30T14:50:16.350Z,9.27
2022-09-30T14:52:45.202Z,8.57
2022-09-30T14:55:23.554Z,8.90
2022-09-30T14:57:50.259Z,9.77
2022-09-30T15:00:28.284Z,8.03
2022-09-30T15:02:58.240Z,8.30
2022-09-30T15:05:25.706Z,10.13
2022-09-30T15:07:53.378Z,8.63
2022-09-30T15:10:26.780Z,8.20
2022-09-30T15:12:55.197Z,8.77
2022-09-30T15:15:28.787Z,10.00
2022-09-30T15:17:56.188Z,11.77
2022-09-30T15:20:28.031Z,7.97
2022-09-30T15:23:03.271Z,10.47
2022-09-30T15:25:30.546Z,10.80
2022-09-30T15:27:57.528Z,11.60
2022-09-30T15:30:29.297Z,12.27
2022-09-30T15:33:03.611Z,10.20
2022-09-30T15:35:35.404Z,12.03
2022-09-30T15:38:21.745Z,11.93
2022-09-30T15:41:10.027Z,10.17
2022-09-30T15:43:51.679Z,11.40
2022-09-30T15:46:28.848Z,11.33
2022-09-30T15:49:07.193Z,11.57
2022-09-30T15:51:38.086Z,11.83
2022-09-30T15:54:36.247Z,14.03
2022-09-30T15:57:06.099Z,10.97
2022-09-30T16:00:02.129Z,12.47
2022-09-30T16:02:29.531Z,13.17
2022-09-30T16:04:56.363Z,15.20
2022-09-30T16:07:29.065Z,13.37
2022-09-30T16:09:57.031Z,12.07
2022-09-30T16:12:25.957Z,34.00
2022-09-30T16:14:54.258Z,19.37
2022-09-30T16:17:32.586Z,14.30
2022-09-30T16:20:05.799Z,14.03
2022-09-30T16:22:35.487Z,14.03
2022-09-30T16:25:31.667Z,12.77
2022-09-30T16:27:59.212Z,13.17
2022-09-30T16:30:26.332Z,16.87
2022-09-30T16:32:58.215Z,12.60
2022-09-30T16:35:26.770Z,13.17
2022-09-30T16:38:04.572Z,19.97
2022-09-30T16:40:32.072Z,12.97
2022-09-30T16:42:59.132Z,13.17
2022-09-30T16:45:26.874Z,14.53
2022-09-30T16:47:53.995Z,13.90
2022-09-30T16:50:23.468Z,15.23
2022-09-30T16:52:50.236Z,14.37
2022-09-30T16:55:17.019Z,13.80
2022-09-30T16:57:48.243Z,15.47
2022-09-30T17:00:18.301Z,14.10
2022-09-30T17:02:46.561Z,12.53
2022-09-30T17:05:18.897Z,13.90
2022-09-30T17:07:49.913Z,13.53
2022-09-30T17:10:21.365Z,14.83
2022-09-30T17:12:49.039Z,17.00
2022-09-30T17:15:16.824Z,17.47
2022-09-30T17:17:43.987Z,18.53
2022-09-30T17:20:13.258Z,18.33
2022-09-30T17:22:39.979Z,15.93
2022-09-30T17:25:07.464Z,14.70
2022-09-30T17:27:36.754Z,17.73
2022-09-30T17:30:04.394Z,17.17
2022-09-30T17:32:31.209Z,21.60
2022-09-30T17:34:57.965Z,18.53
2022-09-30T17:37:29.800Z,15.70
2022-09-30T17:39:58.753Z,19.60
2022-09-30T17:42:44.014Z,14.33
2022-09-30T17:45:10.900Z,14.47
2022-09-30T17:47:39.708Z,13.27
2022-09-30T17:50:06.999Z,13.93
2022-09-30T17:52:34.396Z,13.83
2022-09-30T17:55:01.603Z,16.67
2022-09-30T17:57:28.457Z,17.93
2022-09-30T17:59:57.293Z,16.90
2022-09-30T18:02:25.344Z,13.03
2022-09-30T18:04:54.394Z,15.30
2022-09-30T18:07:22.894Z,15.40
2022-09-30T18:09:51.130Z,16.67
2022-09-30T18:12:20.062Z,17.67
2022-09-30T18:14:49.315Z,21.00
2022-09-30T18:17:16.021Z,18.33
2022-09-30T18:19:42.766Z,18.37
2022-09-30T18:22:10.591Z,16.73
2022-09-30T18:24:57.991Z,22.23
2022-09-30T18:27:26.088Z,15.37
2022-09-30T18:29:55.286Z,16.17
2022-09-30T18:32:21.997Z,18.53
2022-09-30T18:34:48.862Z,18.90
2022-09-30T18:37:15.619Z,18.70
2022-09-30T18:39:42.365Z,19.17
2022-09-30T18:42:09.378Z,15.27
2022-09-30T18:44:37.973Z,17.03
2022-09-30T18:47:05.604Z,18.13
2022-09-30T18:49:32.527Z,20.63
2022-09-30T18:52:03.206Z,18.70
2022-09-30T18:54:30.207Z,18.13
2022-09-30T18:56:56.956Z,18.53
2022-09-30T18:59:24.206Z,16.93
2022-09-30T19:01:51.229Z,16.30
2022-09-30T19:04:20.788Z,14.97
2022-09-30T19:06:47.773Z,20.10
2022-09-30T19:09:16.441Z,17.93
2022-09-30T19:11:44.850Z,16.17
2022-09-30T19:14:12.992Z,16.17
2022-09-30T19:16:40.174Z,15.80
2022-09-30T19:19:10.271Z,19.20
2022-09-30T19:21:40.083Z,16.23
2022-09-30T19:24:09.294Z,18.57
2022-09-30T19:26:37.116Z,17.87
2022-09-30T19:29:05.425Z,19.43
2022-09-30T19:31:37.615Z,18.10
2022-09-30T19:34:07.281Z,19.27
2022-09-30T19:36:50.084Z,16.77
2022-09-30T19:39:18.659Z,16.27
2022-09-30T19:41:47.999Z,20.67
2022-09-30T19:44:20.062Z,19.50
2022-09-30T19:46:50.685Z,18.97
2022-09-30T19:49:17.947Z,20.27
2022-09-30T19:51:44.707Z,19.17
2022-09-30T19:54:13.650Z,17.80
2022-09-30T19:56:40.607Z,28.60
2022-09-30T19:59:07.326Z,18.07
2022-09-30T20:01:37.417Z,19.10
2022-09-30T20:04:05.553Z,20.80
2022-09-30T20:06:34.862Z,16.90
2022-09-30T20:09:03.357Z,19.87
2022-09-30T20:11:35.976Z,18.03
2022-09-30T20:14:23.200Z,19.00
2022-09-30T20:16:49.981Z,19.10
2022-09-30T20:19:17.259Z,18.73
2022-09-30T20:21:44.438Z,22.00
2022-09-30T20:24:12.384Z,21.87
2022-09-30T20:26:39.517Z,20.73
2022-09-30T20:29:08.919Z,18.80
2022-09-30T20:31:38.751Z,19.30
2022-09-30T20:34:05.500Z,22.03
2022-09-30T20:36:32.370Z,20.53
2022-09-30T20:39:02.612Z,21.13
2022-09-30T20:41:35.707Z,21.03
2022-09-30T20:44:07.509Z,21.83
2022-09-30T20:46:37.333Z,26.33
2022-09-30T20:49:06.297Z,24.90
2022-09-30T20:51:33.433Z,23.57
2022-09-30T20:54:00.455Z,22.03
2022-09-30T20:56:39.330Z,24.87
2022-09-30T20:59:16.631Z,26.63
2022-09-30T21:01:43.689Z,25.30
2022-09-30T21:04:12.843Z,27.17
2022-09-30T21:06:39.720Z,26.40
2022-09-30T21:09:11.037Z,21.93
2022-09-30T21:11:40.996Z,24.33
2022-09-30T21:14:07.954Z,24.50
2022-09-30T21:16:34.742Z,24.77
2022-09-30T21:19:01.536Z,24.97
2022-09-30T21:21:30.639Z,24.17
2022-09-30T21:23:59.302Z,26.23
2022-09-30T21:26:26.647Z,25.40
2022-09-30T21:28:55.532Z,23.67
2022-09-30T21:31:26.847Z,26.80
2022-09-30T21:33:56.356Z,22.97
2022-09-30T21:36:23.166Z,28.60
2022-09-30T21:38:52.356Z,27.10
2022-09-30T21:41:19.741Z,24.63
2022-09-30T21:43:47.112Z,23.73
2022-09-30T21:46:14.961Z,25.57
2022-09-30T21:48:45.544Z,24.70
2022-09-30T21:51:13.855Z,25.80
2022-09-30T21:53:40.755Z,25.97
2022-09-30T21:56:07.504Z,26.97
2022-09-30T21:58:34.218Z,25.87
2022-09-30T22:01:03.379Z,25.93
2022-09-30T22:03:37.782Z,29.17
2022-09-30T22:06:07.450Z,26.63
2022-09-30T22:08:36.371Z,28.07
2022-09-30T22:11:04.037Z,28.80
2022-09-30T22:13:32.906Z,27.03
2022-09-30T22:16:03.555Z,26.93
2022-09-30T22:18:32.196Z,30.33
2022-09-30T22:21:03.713Z,26.80
2022-09-30T22:23:30.372Z,25.23
2022-09-30T22:25:57.589Z,28.03
2022-09-30T22:28:27.031Z,28.17
2022-09-30T22:30:56.002Z,28.23
2022-09-30T22:33:43.797Z,28.57
2022-09-30T22:36:29.262Z,29.17
2022-09-30T22:38:58.161Z,31.67
2022-09-30T22:41:27.096Z,27.30
2022-09-30T22:43:56.709Z,33.70
2022-09-30T22:46:23.468Z,28.53
2022-09-30T22:48:50.373Z,27.97
2022-09-30T22:51:17.200Z,25.03
2022-09-30T22:53:46.351Z,27.67
2022-09-30T22:56:13.123Z,29.20
2022-09-30T22:58:39.883Z,30.63
2022-09-30T23:01:07.243Z,29.67
2022-09-30T23:03:34.996Z,29.50
2022-09-30T23:06:02.431Z,32.60
2022-09-30T23:08:33.488Z,31.03
2022-09-30T23:11:00.386Z,34.33
2022-09-30T23:13:30.644Z,32.77
2022-09-30T23:16:00.388Z,31.43
2022-09-30T23:18:28.044Z,32.53
2022-09-30T23:20:58.943Z,33.00
2022-09-30T23:23:25.826Z,28.07
2022-09-30T23:26:09.932Z,30.27
2022-09-30T23:28:36.700Z,32.57
2022-09-30T23:31:05.221Z,32.20
2022-09-30T23:33:31.967Z,32.40
2022-09-30T23:36:01.632Z,32.00
2022-09-30T23:38:28.715Z,32.83
2022-09-30T23:41:01.231Z,31.80
2022-09-30T23:43:31.376Z,35.00
2022-09-30T23:46:01.150Z,34.17
2022-09-30T23:48:27.967Z,33.37
2022-09-30T23:50:54.793Z,35.23
2022-09-30T23:53:24.377Z,35.53
2022-09-30T23:56:17.757Z,39.57
2022-09-30T23:58:44.929Z,33.47
